sensor_id;sensor_type;location;lat;lon;timestamp;P1;durP1;ratioP1;P2;durP2;ratioP2
21569;SDS011;57598;50.888;4.746;2022-12-18T00:00:58;46.58;;;43.58;;
21569;SDS011;57598;50.888;4.746;2022-12-18T00:03:26;46.28;;;43.28;;
21569;SDS011;57598;50.888;4.746;2022-12-18T00:05:53;47.58;;;44.58;;
21569;SDS011;57598;50.888;4.746;2022-12-18T00:08:21;57.75;;;52.90;;
21569;SDS011;57598;50.888;4.746;2022-12-18T00:10:48;48.70;;;45.60;;
21569;SDS011;57598;50.888;4.746;2022-12-18T00:13:15;51.55;;;47.95;;
21569;SDS011;57598;50.888;4.746;2022-12-18T00:15:43;47.25;;;44.25;;
21569;SDS011;57598;50.888;4.746;2022-12-18T00:18:10;48.45;;;45.45;;
21569;SDS011;57598;50.888;4.746;2022-12-18T00:20:39;46.25;;;43.35;;
21569;SDS011;57598;50.888;4.746;2022-12-18T00:23:07;47.75;;;44.75;;
21569;SDS011;57598;50.888;4.746;2022-12-18T00:25:34;47.30;;;44.30;;
21569;SDS011;57598;50.888;4.746;2022-12-18T00:28:02;47.80;;;44.75;;
21569;SDS011;57598;50.888;4.746;2022-12-18T00:30:29;48.55;;;45.47;;
21569;SDS011;57598;50.888;4.746;2022-12-18T00:32:57;48.33;;;45.33;;
21569;SDS011;57598;50.888;4.746;2022-12-18T00:35:24;49.55;;;46.45;;
21569;SDS011;57598;50.888;4.746;2022-12-18T00:37:53;49.85;;;46.67;;
21569;SDS011;57598;50.888;4.746;2022-12-18T00:40:20;48.63;;;45.53;;
21569;SDS011;57598;50.888;4.746;2022-12-18T00:42:47;51.08;;;47.88;;
21569;SDS011;57598;50.888;4.746;2022-12-18T00:45:24;49.05;;;45.92;;
21569;SDS011;57598;50.888;4.746;2022-12-18T00:47:51;50.20;;;47.00;;
21569;SDS011;57598;50.888;4.746;2022-12-18T00:50:18;49.40;;;46.25;;
21569;SDS011;57598;50.888;4.746;2022-12-18T00:52:45;49.35;;;46.15;;
21569;SDS011;57598;50.888;4.746;2022-12-18T00:55:16;49.50;;;46.30;;
21569;SDS011;57598;50.888;4.746;2022-12-18T00:57:43;49.25;;;46.10;;
21569;SDS011;57598;50.888;4.746;2022-12-18T01:00:12;49.33;;;46.22;;
21569;SDS011;57598;50.888;4.746;2022-12-18T01:02:40;49.00;;;45.90;;
21569;SDS011;57598;50.888;4.746;2022-12-18T01:05:08;49.03;;;45.83;;
21569;SDS011;57598;50.888;4.746;2022-12-18T01:07:36;53.50;;;49.83;;
21569;SDS011;57598;50.888;4.746;2022-12-18T01:10:04;51.50;;;48.15;;
21569;SDS011;57598;50.888;4.746;2022-12-18T01:12:34;50.22;;;47.03;;
21569;SDS011;57598;50.888;4.746;2022-12-18T01:15:01;49.55;;;46.35;;
21569;SDS011;57598;50.888;4.746;2022-12-18T01:17:28;49.83;;;46.63;;
21569;SDS011;57598;50.888;4.746;2022-12-18T01:19:56;49.72;;;46.53;;
21569;SDS011;57598;50.888;4.746;2022-12-18T01:22:23;51.35;;;48.05;;
21569;SDS011;57598;50.888;4.746;2022-12-18T01:24:50;50.33;;;47.13;;
21569;SDS011;57598;50.888;4.746;2022-12-18T01:27:18;53.55;;;50.15;;
21569;SDS011;57598;50.888;4.746;2022-12-18T01:29:46;50.50;;;47.20;;
21569;SDS011;57598;50.888;4.746;2022-12-18T01:32:13;53.58;;;50.10;;
21569;SDS011;57598;50.888;4.746;2022-12-18T01:34:41;53.50;;;50.03;;
21569;SDS011;57598;50.888;4.746;2022-12-18T01:37:08;51.03;;;47.63;;
21569;SDS011;57598;50.888;4.746;2022-12-18T01:39:35;49.55;;;46.25;;
21569;SDS011;57598;50.888;4.746;2022-12-18T01:42:03;50.25;;;46.88;;
21569;SDS011;57598;50.888;4.746;2022-12-18T01:47:18;50.40;;;47.00;;
21569;SDS011;57598;50.888;4.746;2022-12-18T01:49:47;50.05;;;46.65;;
21569;SDS011;57598;50.888;4.746;2022-12-18T01:52:14;51.30;;;47.80;;
21569;SDS011;57598;50.888;4.746;2022-12-18T01:54:42;50.78;;;47.38;;
21569;SDS011;57598;50.888;4.746;2022-12-18T01:57:09;51.85;;;48.35;;
21569;SDS011;57598;50.888;4.746;2022-12-18T01:59:37;50.90;;;47.50;;
21569;SDS011;57598;50.888;4.746;2022-12-18T02:02:06;53.05;;;49.40;;
21569;SDS011;57598;50.888;4.746;2022-12-18T02:04:34;51.42;;;47.90;;
21569;SDS011;57598;50.888;4.746;2022-12-18T02:07:03;51.60;;;48.00;;
21569;SDS011;57598;50.888;4.746;2022-12-18T02:09:35;52.33;;;48.72;;
21569;SDS011;57598;50.888;4.746;2022-12-18T02:12:04;54.35;;;50.60;;
21569;SDS011;57598;50.888;4.746;2022-12-18T02:14:34;52.47;;;48.87;;
21569;SDS011;57598;50.888;4.746;2022-12-18T02:17:04;52.87;;;49.27;;
21569;SDS011;57598;50.888;4.746;2022-12-18T02:19:43;54.10;;;50.30;;
21569;SDS011;57598;50.888;4.746;2022-12-18T02:22:22;51.85;;;48.25;;
21569;SDS011;57598;50.888;4.746;2022-12-18T02:24:53;53.50;;;49.80;;
21569;SDS011;57598;50.888;4.746;2022-12-18T02:27:25;53.88;;;50.10;;
21569;SDS011;57598;50.888;4.746;2022-12-18T02:29:53;52.42;;;48.75;;
21569;SDS011;57598;50.888;4.746;2022-12-18T02:32:24;56.05;;;52.25;;
21569;SDS011;57598;50.888;4.746;2022-12-18T02:34:51;52.70;;;49.10;;
21569;SDS011;57598;50.888;4.746;2022-12-18T02:37:20;52.95;;;49.25;;
21569;SDS011;57598;50.888;4.746;2022-12-18T02:39:49;55.80;;;51.88;;
21569;SDS011;57598;50.888;4.746;2022-12-18T02:42:16;53.35;;;49.58;;
21569;SDS011;57598;50.888;4.746;2022-12-18T02:44:47;52.13;;;48.42;;
21569;SDS011;57598;50.888;4.746;2022-12-18T02:47:15;52.83;;;49.13;;
21569;SDS011;57598;50.888;4.746;2022-12-18T02:49:44;52.20;;;48.53;;
21569;SDS011;57598;50.888;4.746;2022-12-18T02:52:17;51.90;;;48.30;;
21569;SDS011;57598;50.888;4.746;2022-12-18T02:54:51;52.05;;;48.45;;
21569;SDS011;57598;50.888;4.746;2022-12-18T02:57:21;51.70;;;48.10;;
21569;SDS011;57598;50.888;4.746;2022-12-18T02:59:55;52.40;;;48.80;;
21569;SDS011;57598;50.888;4.746;2022-12-18T03:02:26;52.00;;;48.42;;
21569;SDS011;57598;50.888;4.746;2022-12-18T03:04:55;50.92;;;47.42;;
21569;SDS011;57598;50.888;4.746;2022-12-18T03:07:26;50.43;;;47.03;;
21569;SDS011;57598;50.888;4.746;2022-12-18T03:09:54;51.25;;;47.78;;
21569;SDS011;57598;50.888;4.746;2022-12-18T03:12:23;53.10;;;49.15;;
21569;SDS011;57598;50.888;4.746;2022-12-18T03:14:56;50.20;;;46.90;;
21569;SDS011;57598;50.888;4.746;2022-12-18T03:17:26;51.75;;;48.22;;
21569;SDS011;57598;50.888;4.746;2022-12-18T03:19:55;50.33;;;47.05;;
21569;SDS011;57598;50.888;4.746;2022-12-18T03:22:23;49.72;;;46.53;;
21569;SDS011;57598;50.888;4.746;2022-12-18T03:24:54;49.85;;;46.60;;
21569;SDS011;57598;50.888;4.746;2022-12-18T03:27:23;49.25;;;46.08;;
21569;SDS011;57598;50.888;4.746;2022-12-18T03:29:51;56.72;;;52.63;;
21569;SDS011;57598;50.888;4.746;2022-12-18T03:32:27;47.85;;;44.85;;
21569;SDS011;57598;50.888;4.746;2022-12-18T03:34:56;48.65;;;45.55;;
21569;SDS011;57598;50.888;4.746;2022-12-18T03:37:25;47.63;;;44.63;;
21569;SDS011;57598;50.888;4.746;2022-12-18T03:39:52;47.75;;;44.75;;
21569;SDS011;57598;50.888;4.746;2022-12-18T03:42:21;50.80;;;47.40;;
21569;SDS011;57598;50.888;4.746;2022-12-18T03:44:51;48.28;;;45.28;;
21569;SDS011;57598;50.888;4.746;2022-12-18T03:47:22;48.22;;;45.22;;
21569;SDS011;57598;50.888;4.746;2022-12-18T03:49:53;49.10;;;46.10;;
21569;SDS011;57598;50.888;4.746;2022-12-18T03:52:24;56.28;;;52.88;;
21569;SDS011;57598;50.888;4.746;2022-12-18T03:54:53;47.85;;;44.85;;
21569;SDS011;57598;50.888;4.746;2022-12-18T03:57:22;47.85;;;44.85;;
21569;SDS011;57598;50.888;4.746;2022-12-18T03:59:52;47.17;;;44.28;;
21569;SDS011;57598;50.888;4.746;2022-12-18T04:02:21;47.08;;;44.17;;
21569;SDS011;57598;50.888;4.746;2022-12-18T04:04:49;46.90;;;44.00;;
21569;SDS011;57598;50.888;4.746;2022-12-18T04:07:19;46.65;;;43.75;;
21569;SDS011;57598;50.888;4.746;2022-12-18T04:09:47;53.20;;;49.95;;
21569;SDS011;57598;50.888;4.746;2022-12-18T04:12:15;46.60;;;43.70;;
21569;SDS011;57598;50.888;4.746;2022-12-18T04:14:42;45.50;;;42.70;;
21569;SDS011;57598;50.888;4.746;2022-12-18T04:17:09;47.35;;;44.38;;
21569;SDS011;57598;50.888;4.746;2022-12-18T04:19:37;45.55;;;42.75;;
21569;SDS011;57598;50.888;4.746;2022-12-18T04:22:04;45.85;;;43.05;;
21569;SDS011;57598;50.888;4.746;2022-12-18T04:24:33;46.03;;;43.22;;
21569;SDS011;57598;50.888;4.746;2022-12-18T04:27:00;45.45;;;42.65;;
21569;SDS011;57598;50.888;4.746;2022-12-18T04:29:27;45.78;;;42.97;;
21569;SDS011;57598;50.888;4.746;2022-12-18T04:31:54;45.00;;;42.20;;
21569;SDS011;57598;50.888;4.746;2022-12-18T04:34:22;43.53;;;40.90;;
21569;SDS011;57598;50.888;4.746;2022-12-18T04:36:49;44.70;;;42.00;;
21569;SDS011;57598;50.888;4.746;2022-12-18T04:39:16;43.90;;;41.20;;
21569;SDS011;57598;50.888;4.746;2022-12-18T04:41:45;46.92;;;44.13;;
21569;SDS011;57598;50.888;4.746;2022-12-18T04:44:12;45.60;;;42.80;;
21569;SDS011;57598;50.888;4.746;2022-12-18T04:46:39;43.78;;;41.17;;
21569;SDS011;57598;50.888;4.746;2022-12-18T04:49:07;43.90;;;41.30;;
21569;SDS011;57598;50.888;4.746;2022-12-18T04:51:35;43.33;;;40.72;;
21569;SDS011;57598;50.888;4.746;2022-12-18T04:54:02;43.95;;;41.35;;
21569;SDS011;57598;50.888;4.746;2022-12-18T04:56:30;43.78;;;41.17;;
21569;SDS011;57598;50.888;4.746;2022-12-18T04:58:59;44.38;;;41.78;;
21569;SDS011;57598;50.888;4.746;2022-12-18T05:01:26;45.83;;;42.47;;
21569;SDS011;57598;50.888;4.746;2022-12-18T05:03:53;43.78;;;41.13;;
21569;SDS011;57598;50.888;4.746;2022-12-18T05:06:21;42.35;;;39.85;;
21569;SDS011;57598;50.888;4.746;2022-12-18T05:08:48;41.85;;;39.40;;
21569;SDS011;57598;50.888;4.746;2022-12-18T05:11:15;43.13;;;40.63;;
21569;SDS011;57598;50.888;4.746;2022-12-18T05:13:43;43.22;;;40.63;;
21569;SDS011;57598;50.888;4.746;2022-12-18T05:16:12;43.55;;;40.95;;
21569;SDS011;57598;50.888;4.746;2022-12-18T05:18:39;45.42;;;42.72;;
21569;SDS011;57598;50.888;4.746;2022-12-18T05:21:07;47.38;;;44.53;;
21569;SDS011;57598;50.888;4.746;2022-12-18T05:23:34;43.85;;;41.25;;
21569;SDS011;57598;50.888;4.746;2022-12-18T05:26:03;44.50;;;41.90;;
21569;SDS011;57598;50.888;4.746;2022-12-18T05:28:31;47.42;;;44.25;;
21569;SDS011;57598;50.888;4.746;2022-12-18T05:30:59;44.42;;;41.75;;
21569;SDS011;57598;50.888;4.746;2022-12-18T05:33:29;43.58;;;40.97;;
21569;SDS011;57598;50.888;4.746;2022-12-18T05:35:57;42.10;;;39.60;;
21569;SDS011;57598;50.888;4.746;2022-12-18T05:38:25;45.58;;;42.35;;
21569;SDS011;57598;50.888;4.746;2022-12-18T05:40:54;45.28;;;42.58;;
21569;SDS011;57598;50.888;4.746;2022-12-18T05:43:22;41.83;;;39.33;;
21569;SDS011;57598;50.888;4.746;2022-12-18T05:45:50;43.90;;;41.30;;
21569;SDS011;57598;50.888;4.746;2022-12-18T05:48:18;42.90;;;40.40;;
21569;SDS011;57598;50.888;4.746;2022-12-18T05:50:47;41.75;;;39.33;;
21569;SDS011;57598;50.888;4.746;2022-12-18T05:53:15;42.50;;;40.05;;
21569;SDS011;57598;50.888;4.746;2022-12-18T05:55:43;44.20;;;41.40;;
21569;SDS011;57598;50.888;4.746;2022-12-18T05:58:11;41.45;;;39.05;;
21569;SDS011;57598;50.888;4.746;2022-12-18T06:00:39;41.67;;;39.28;;
21569;SDS011;57598;50.888;4.746;2022-12-18T06:03:07;41.33;;;38.92;;
21569;SDS011;57598;50.888;4.746;2022-12-18T06:05:34;41.65;;;39.25;;
21569;SDS011;57598;50.888;4.746;2022-12-18T06:08:04;41.33;;;38.92;;
21569;SDS011;57598;50.888;4.746;2022-12-18T06:10:31;41.15;;;38.75;;
21569;SDS011;57598;50.888;4.746;2022-12-18T06:12:58;41.15;;;38.75;;
21569;SDS011;57598;50.888;4.746;2022-12-18T06:15:26;42.90;;;40.33;;
21569;SDS011;57598;50.888;4.746;2022-12-18T06:17:53;42.90;;;40.40;;
21569;SDS011;57598;50.888;4.746;2022-12-18T06:20:20;41.33;;;38.92;;
21569;SDS011;57598;50.888;4.746;2022-12-18T06:22:47;41.80;;;39.40;;
21569;SDS011;57598;50.888;4.746;2022-12-18T06:25:16;42.97;;;40.47;;
21569;SDS011;57598;50.888;4.746;2022-12-18T06:27:43;41.70;;;39.30;;
21569;SDS011;57598;50.888;4.746;2022-12-18T06:30:11;40.95;;;38.63;;
21569;SDS011;57598;50.888;4.746;2022-12-18T06:32:38;43.65;;;40.95;;
21569;SDS011;57598;50.888;4.746;2022-12-18T06:35:06;42.47;;;40.08;;
21569;SDS011;57598;50.888;4.746;2022-12-18T06:37:33;40.88;;;38.47;;
21569;SDS011;57598;50.888;4.746;2022-12-18T06:40:00;40.63;;;38.22;;
21569;SDS011;57598;50.888;4.746;2022-12-18T06:42:29;39.65;;;37.35;;
21569;SDS011;57598;50.888;4.746;2022-12-18T06:44:57;40.20;;;37.90;;
21569;SDS011;57598;50.888;4.746;2022-12-18T06:47:24;38.53;;;36.33;;
21569;SDS011;57598;50.888;4.746;2022-12-18T06:49:51;40.10;;;37.80;;
21569;SDS011;57598;50.888;4.746;2022-12-18T06:52:18;39.17;;;36.97;;
21569;SDS011;57598;50.888;4.746;2022-12-18T06:54:46;38.72;;;36.53;;
21569;SDS011;57598;50.888;4.746;2022-12-18T06:57:13;38.17;;;36.03;;
21569;SDS011;57598;50.888;4.746;2022-12-18T06:59:41;40.80;;;38.50;;
21569;SDS011;57598;50.888;4.746;2022-12-18T07:02:10;39.08;;;36.88;;
21569;SDS011;57598;50.888;4.746;2022-12-18T07:04:39;39.70;;;37.40;;
21569;SDS011;57598;50.888;4.746;2022-12-18T07:07:06;40.08;;;37.78;;
21569;SDS011;57598;50.888;4.746;2022-12-18T07:09:33;39.63;;;37.33;;
21569;SDS011;57598;50.888;4.746;2022-12-18T07:12:00;40.80;;;38.50;;
21569;SDS011;57598;50.888;4.746;2022-12-18T07:14:30;40.25;;;37.95;;
21569;SDS011;57598;50.888;4.746;2022-12-18T07:16:58;43.08;;;40.47;;
21569;SDS011;57598;50.888;4.746;2022-12-18T07:19:25;40.17;;;37.88;;
21569;SDS011;57598;50.888;4.746;2022-12-18T07:21:53;41.70;;;39.30;;
21569;SDS011;57598;50.888;4.746;2022-12-18T07:24:20;40.92;;;38.53;;
21569;SDS011;57598;50.888;4.746;2022-12-18T07:26:47;40.88;;;38.47;;
21569;SDS011;57598;50.888;4.746;2022-12-18T07:29:15;40.22;;;37.92;;
21569;SDS011;57598;50.888;4.746;2022-12-18T07:31:42;39.63;;;37.33;;
21569;SDS011;57598;50.888;4.746;2022-12-18T07:34:11;39.53;;;37.22;;
21569;SDS011;57598;50.888;4.746;2022-12-18T07:36:41;39.90;;;37.58;;
21569;SDS011;57598;50.888;4.746;2022-12-18T07:39:10;41.15;;;38.65;;
21569;SDS011;57598;50.888;4.746;2022-12-18T07:41:37;43.45;;;40.85;;
21569;SDS011;57598;50.888;4.746;2022-12-18T07:44:08;41.42;;;38.92;;
21569;SDS011;57598;50.888;4.746;2022-12-18T07:46:35;41.28;;;38.78;;
21569;SDS011;57598;50.888;4.746;2022-12-18T07:49:03;39.83;;;37.53;;
21569;SDS011;57598;50.888;4.746;2022-12-18T07:51:32;40.95;;;38.55;;
21569;SDS011;57598;50.888;4.746;2022-12-18T07:53:59;38.90;;;36.60;;
21569;SDS011;57598;50.888;4.746;2022-12-18T07:56:26;41.58;;;39.08;;
21569;SDS011;57598;50.888;4.746;2022-12-18T07:58:53;42.85;;;40.25;;
21569;SDS011;57598;50.888;4.746;2022-12-18T08:01:21;40.78;;;38.35;;
21569;SDS011;57598;50.888;4.746;2022-12-18T08:03:48;40.58;;;38.08;;
21569;SDS011;57598;50.888;4.746;2022-12-18T08:06:15;40.08;;;37.67;;
21569;SDS011;57598;50.888;4.746;2022-12-18T08:08:44;40.40;;;38.00;;
21569;SDS011;57598;50.888;4.746;2022-12-18T08:11:11;41.90;;;39.40;;
21569;SDS011;57598;50.888;4.746;2022-12-18T08:13:38;40.95;;;38.45;;
21569;SDS011;57598;50.888;4.746;2022-12-18T08:16:06;42.35;;;39.83;;
21569;SDS011;57598;50.888;4.746;2022-12-18T08:18:34;41.33;;;38.83;;
21569;SDS011;57598;50.888;4.746;2022-12-18T08:21:07;43.10;;;40.25;;
21569;SDS011;57598;50.888;4.746;2022-12-18T08:23:35;41.08;;;38.58;;
21569;SDS011;57598;50.888;4.746;2022-12-18T08:26:04;43.58;;;40.80;;
21569;SDS011;57598;50.888;4.746;2022-12-18T08:28:31;41.85;;;39.25;;
21569;SDS011;57598;50.888;4.746;2022-12-18T08:30:58;41.28;;;38.78;;
21569;SDS011;57598;50.888;4.746;2022-12-18T08:33:26;43.53;;;40.72;;
21569;SDS011;57598;50.888;4.746;2022-12-18T08:35:53;41.30;;;38.83;;
21569;SDS011;57598;50.888;4.746;2022-12-18T08:38:20;41.30;;;38.80;;
21569;SDS011;57598;50.888;4.746;2022-12-18T08:40:48;40.17;;;37.83;;
21569;SDS011;57598;50.888;4.746;2022-12-18T08:43:17;43.05;;;40.17;;
21569;SDS011;57598;50.888;4.746;2022-12-18T08:46:01;38.55;;;36.35;;
21569;SDS011;57598;50.888;4.746;2022-12-18T08:48:28;38.67;;;36.38;;
21569;SDS011;57598;50.888;4.746;2022-12-18T08:50:56;41.83;;;38.90;;
21569;SDS011;57598;50.888;4.746;2022-12-18T08:53:24;37.00;;;34.90;;
21569;SDS011;57598;50.888;4.746;2022-12-18T08:55:51;38.08;;;35.95;;
21569;SDS011;57598;50.888;4.746;2022-12-18T08:58:19;38.15;;;35.33;;
21569;SDS011;57598;50.888;4.746;2022-12-18T09:00:47;34.50;;;32.25;;
21569;SDS011;57598;50.888;4.746;2022-12-18T09:03:14;32.35;;;30.50;;
21569;SDS011;57598;50.888;4.746;2022-12-18T09:05:42;31.20;;;29.48;;
21569;SDS011;57598;50.888;4.746;2022-12-18T09:08:09;30.00;;;28.40;;
21569;SDS011;57598;50.888;4.746;2022-12-18T09:10:41;29.83;;;28.13;;
21569;SDS011;57598;50.888;4.746;2022-12-18T09:13:09;30.75;;;28.77;;
21569;SDS011;57598;50.888;4.746;2022-12-18T09:15:41;24.88;;;23.58;;
21569;SDS011;57598;50.888;4.746;2022-12-18T09:18:10;25.08;;;23.67;;
21569;SDS011;57598;50.888;4.746;2022-12-18T09:20:38;25.35;;;23.75;;
21569;SDS011;57598;50.888;4.746;2022-12-18T09:23:05;25.77;;;24.38;;
21569;SDS011;57598;50.888;4.746;2022-12-18T09:25:33;24.08;;;22.77;;
21569;SDS011;57598;50.888;4.746;2022-12-18T09:28:01;23.85;;;22.42;;
21569;SDS011;57598;50.888;4.746;2022-12-18T09:30:28;23.48;;;22.17;;
21569;SDS011;57598;50.888;4.746;2022-12-18T09:32:56;25.52;;;23.67;;
21569;SDS011;57598;50.888;4.746;2022-12-18T09:35:24;20.95;;;19.75;;
21569;SDS011;57598;50.888;4.746;2022-12-18T09:37:52;22.92;;;21.42;;
21569;SDS011;57598;50.888;4.746;2022-12-18T09:40:21;23.10;;;21.80;;
21569;SDS011;57598;50.888;4.746;2022-12-18T09:42:50;22.80;;;21.08;;
21569;SDS011;57598;50.888;4.746;2022-12-18T09:45:19;24.00;;;22.50;;
21569;SDS011;57598;50.888;4.746;2022-12-18T09:47:47;24.00;;;22.30;;
21569;SDS011;57598;50.888;4.746;2022-12-18T09:50:19;22.38;;;21.08;;
21569;SDS011;57598;50.888;4.746;2022-12-18T09:52:50;21.48;;;20.27;;
21569;SDS011;57598;50.888;4.746;2022-12-18T09:55:20;23.23;;;21.73;;
21569;SDS011;57598;50.888;4.746;2022-12-18T09:57:51;21.65;;;20.38;;
21569;SDS011;57598;50.888;4.746;2022-12-18T10:02:47;22.55;;;21.17;;
21569;SDS011;57598;50.888;4.746;2022-12-18T10:05:16;21.80;;;20.60;;
21569;SDS011;57598;50.888;4.746;2022-12-18T10:07:49;21.42;;;20.23;;
21569;SDS011;57598;50.888;4.746;2022-12-18T10:10:21;22.50;;;21.20;;
21569;SDS011;57598;50.888;4.746;2022-12-18T10:12:52;22.42;;;21.13;;
21569;SDS011;57598;50.888;4.746;2022-12-18T10:15:23;21.73;;;20.45;;
21569;SDS011;57598;50.888;4.746;2022-12-18T10:17:51;25.23;;;23.67;;
21569;SDS011;57598;50.888;4.746;2022-12-18T10:20:22;25.10;;;23.35;;
21569;SDS011;57598;50.888;4.746;2022-12-18T10:22:55;20.92;;;19.73;;
21569;SDS011;57598;50.888;4.746;2022-12-18T10:25:25;21.95;;;20.75;;
21569;SDS011;57598;50.888;4.746;2022-12-18T10:27:55;22.65;;;21.35;;
21569;SDS011;57598;50.888;4.746;2022-12-18T10:30:23;24.77;;;22.77;;
21569;SDS011;57598;50.888;4.746;2022-12-18T10:32:51;23.40;;;22.00;;
21569;SDS011;57598;50.888;4.746;2022-12-18T10:35:20;26.08;;;24.58;;
21569;SDS011;57598;50.888;4.746;2022-12-18T10:38:05;22.38;;;21.17;;
21569;SDS011;57598;50.888;4.746;2022-12-18T10:40:35;23.70;;;22.13;;
21569;SDS011;57598;50.888;4.746;2022-12-18T10:43:14;25.25;;;23.42;;
21569;SDS011;57598;50.888;4.746;2022-12-18T10:45:42;22.13;;;20.92;;
21569;SDS011;57598;50.888;4.746;2022-12-18T10:48:17;25.55;;;23.65;;
21569;SDS011;57598;50.888;4.746;2022-12-18T10:50:46;23.13;;;21.83;;
21569;SDS011;57598;50.888;4.746;2022-12-18T10:53:17;24.52;;;23.02;;
21569;SDS011;57598;50.888;4.746;2022-12-18T10:55:46;22.88;;;21.58;;
21569;SDS011;57598;50.888;4.746;2022-12-18T10:58:16;24.63;;;23.02;;
21569;SDS011;57598;50.888;4.746;2022-12-18T11:00:49;27.52;;;25.23;;
21569;SDS011;57598;50.888;4.746;2022-12-18T11:03:29;29.42;;;27.15;;
21569;SDS011;57598;50.888;4.746;2022-12-18T11:06:01;23.48;;;22.13;;
21569;SDS011;57598;50.888;4.746;2022-12-18T11:08:29;24.58;;;23.08;;
21569;SDS011;57598;50.888;4.746;2022-12-18T11:10:57;25.60;;;23.90;;
21569;SDS011;57598;50.888;4.746;2022-12-18T11:13:24;23.38;;;21.92;;
21569;SDS011;57598;50.888;4.746;2022-12-18T11:15:53;27.92;;;25.55;;
21569;SDS011;57598;50.888;4.746;2022-12-18T11:18:22;22.88;;;21.60;;
21569;SDS011;57598;50.888;4.746;2022-12-18T11:23:19;22.60;;;21.40;;
21569;SDS011;57598;50.888;4.746;2022-12-18T11:25:53;22.63;;;21.38;;
21569;SDS011;57598;50.888;4.746;2022-12-18T11:28:28;23.20;;;21.90;;
21569;SDS011;57598;50.888;4.746;2022-12-18T11:31:15;21.48;;;20.27;;
21569;SDS011;57598;50.888;4.746;2022-12-18T11:33:44;22.90;;;21.60;;
21569;SDS011;57598;50.888;4.746;2022-12-18T11:36:13;24.13;;;22.40;;
21569;SDS011;57598;50.888;4.746;2022-12-18T11:38:41;26.23;;;23.67;;
21569;SDS011;57598;50.888;4.746;2022-12-18T11:41:14;22.30;;;20.90;;
21569;SDS011;57598;50.888;4.746;2022-12-18T11:43:44;21.70;;;20.50;;
21569;SDS011;57598;50.888;4.746;2022-12-18T11:48:43;22.60;;;21.33;;
21569;SDS011;57598;50.888;4.746;2022-12-18T11:51:13;22.88;;;21.58;;
21569;SDS011;57598;50.888;4.746;2022-12-18T11:53:41;23.67;;;22.33;;
21569;SDS011;57598;50.888;4.746;2022-12-18T11:56:14;21.80;;;20.60;;
21569;SDS011;57598;50.888;4.746;2022-12-18T11:58:46;22.50;;;21.00;;
21569;SDS011;57598;50.888;4.746;2022-12-18T12:01:23;27.13;;;25.50;;
21569;SDS011;57598;50.888;4.746;2022-12-18T12:04:02;21.60;;;20.25;;
21569;SDS011;57598;50.888;4.746;2022-12-18T12:06:33;21.58;;;20.38;;
21569;SDS011;57598;50.888;4.746;2022-12-18T12:09:07;21.20;;;20.00;;
21569;SDS011;57598;50.888;4.746;2022-12-18T12:14:15;21.65;;;20.45;;
21569;SDS011;57598;50.888;4.746;2022-12-18T12:16:49;26.40;;;24.60;;
21569;SDS011;57598;50.888;4.746;2022-12-18T12:19:25;23.17;;;21.88;;
21569;SDS011;57598;50.888;4.746;2022-12-18T12:21:57;26.38;;;24.80;;
21569;SDS011;57598;50.888;4.746;2022-12-18T12:24:28;23.15;;;21.85;;
21569;SDS011;57598;50.888;4.746;2022-12-18T12:26:59;24.80;;;23.40;;
21569;SDS011;57598;50.888;4.746;2022-12-18T12:29:35;23.60;;;22.30;;
21569;SDS011;57598;50.888;4.746;2022-12-18T12:32:07;24.50;;;23.13;;
21569;SDS011;57598;50.888;4.746;2022-12-18T12:34:37;23.80;;;22.50;;
21569;SDS011;57598;50.888;4.746;2022-12-18T12:37:12;23.85;;;22.55;;
21569;SDS011;57598;50.888;4.746;2022-12-18T12:39:42;25.25;;;23.85;;
21569;SDS011;57598;50.888;4.746;2022-12-18T12:42:11;23.20;;;21.90;;
21569;SDS011;57598;50.888;4.746;2022-12-18T12:44:58;27.30;;;25.80;;
21569;SDS011;57598;50.888;4.746;2022-12-18T12:47:28;27.95;;;26.35;;
21569;SDS011;57598;50.888;4.746;2022-12-18T12:49:57;26.60;;;24.90;;
21569;SDS011;57598;50.888;4.746;2022-12-18T12:52:27;24.73;;;23.33;;
21569;SDS011;57598;50.888;4.746;2022-12-18T12:54:56;24.90;;;23.50;;
21569;SDS011;57598;50.888;4.746;2022-12-18T12:57:26;27.45;;;25.80;;
21569;SDS011;57598;50.888;4.746;2022-12-18T13:00:00;24.40;;;23.10;;
21569;SDS011;57598;50.888;4.746;2022-12-18T13:02:30;24.85;;;23.45;;
21569;SDS011;57598;50.888;4.746;2022-12-18T13:05:00;26.25;;;24.80;;
21569;SDS011;57598;50.888;4.746;2022-12-18T13:07:32;24.30;;;23.00;;
21569;SDS011;57598;50.888;4.746;2022-12-18T13:12:55;26.90;;;25.25;;
21569;SDS011;57598;50.888;4.746;2022-12-18T13:15:24;23.92;;;22.63;;
21569;SDS011;57598;50.888;4.746;2022-12-18T13:18:14;33.88;;;31.70;;
21569;SDS011;57598;50.888;4.746;2022-12-18T13:20:42;23.63;;;22.33;;
21569;SDS011;57598;50.888;4.746;2022-12-18T13:23:29;24.38;;;22.98;;
21569;SDS011;57598;50.888;4.746;2022-12-18T13:25:58;24.92;;;23.55;;
21569;SDS011;57598;50.888;4.746;2022-12-18T13:31:13;27.27;;;25.17;;
21569;SDS011;57598;50.888;4.746;2022-12-18T13:33:42;26.83;;;24.50;;
21569;SDS011;57598;50.888;4.746;2022-12-18T13:36:13;25.23;;;23.52;;
21569;SDS011;57598;50.888;4.746;2022-12-18T13:38:40;24.83;;;23.27;;
21569;SDS011;57598;50.888;4.746;2022-12-18T13:41:24;28.10;;;26.08;;
21569;SDS011;57598;50.888;4.746;2022-12-18T13:43:53;23.27;;;21.85;;
21569;SDS011;57598;50.888;4.746;2022-12-18T13:46:25;23.15;;;21.75;;
21569;SDS011;57598;50.888;4.746;2022-12-18T13:48:55;28.88;;;26.38;;
21569;SDS011;57598;50.888;4.746;2022-12-18T13:51:23;21.45;;;20.25;;
21569;SDS011;57598;50.888;4.746;2022-12-18T13:53:52;24.35;;;22.73;;
21569;SDS011;57598;50.888;4.746;2022-12-18T13:56:24;23.60;;;22.10;;
21569;SDS011;57598;50.888;4.746;2022-12-18T14:01:49;23.73;;;22.33;;
21569;SDS011;57598;50.888;4.746;2022-12-18T14:06:44;29.00;;;27.00;;
21569;SDS011;57598;50.888;4.746;2022-12-18T14:09:13;26.05;;;24.38;;
21569;SDS011;57598;50.888;4.746;2022-12-18T14:11:41;21.88;;;20.65;;
21569;SDS011;57598;50.888;4.746;2022-12-18T14:14:13;26.30;;;24.35;;
21569;SDS011;57598;50.888;4.746;2022-12-18T14:16:40;24.15;;;22.52;;
21569;SDS011;57598;50.888;4.746;2022-12-18T14:19:12;32.90;;;30.15;;
21569;SDS011;57598;50.888;4.746;2022-12-18T14:21:44;24.65;;;22.80;;
21569;SDS011;57598;50.888;4.746;2022-12-18T14:24:13;26.02;;;24.08;;
21569;SDS011;57598;50.888;4.746;2022-12-18T14:26:40;21.92;;;20.67;;
21569;SDS011;57598;50.888;4.746;2022-12-18T14:29:18;24.17;;;22.77;;
21569;SDS011;57598;50.888;4.746;2022-12-18T14:31:45;23.67;;;22.30;;
21569;SDS011;57598;50.888;4.746;2022-12-18T14:34:16;22.48;;;21.17;;
21569;SDS011;57598;50.888;4.746;2022-12-18T14:39:13;23.17;;;21.77;;
21569;SDS011;57598;50.888;4.746;2022-12-18T14:41:43;21.42;;;20.23;;
21569;SDS011;57598;50.888;4.746;2022-12-18T14:44:11;23.25;;;21.85;;
21569;SDS011;57598;50.888;4.746;2022-12-18T14:46:39;23.20;;;21.83;;
21569;SDS011;57598;50.888;4.746;2022-12-18T14:49:17;26.02;;;24.27;;
21569;SDS011;57598;50.888;4.746;2022-12-18T14:51:47;21.90;;;20.70;;
21569;SDS011;57598;50.888;4.746;2022-12-18T14:54:15;21.95;;;20.75;;
21569;SDS011;57598;50.888;4.746;2022-12-18T14:56:44;23.30;;;22.00;;
21569;SDS011;57598;50.888;4.746;2022-12-18T14:59:12;22.80;;;21.50;;